N88 weather

Public forecast

Using degrees Fahrenheit for public forecast. Weather courtesy of forecast.io.

Closest aviation weather report (METAR) to Kecks Airport

Closest report is Burlington Alamance Regional Airport, 10.4 nm (19.3 km) NE. Retrieved 2020/08/13 10:54 UTC (13 minutes ago):

KBUY 131054Z AUTO 00000KT 4SM BR OVC003 24/22 A3004 RMK AO2 SLP166 T02390222

Closest aviation forecast (TAF) to Kecks Airport

Closest forecast is Piedmont Triad International Airport, 18.2 nm (33.8 km) NW. Retrieved 2020/08/13 06:48 UTC (4 hours ago):

TAF KGSO 130540Z 1306/1406 VRB03KT P6SM VCSH SCT035 SCT100 BKN250 TEMPO 1311/1313 4SM BR BKN004 FM140100 04003KT 5SM -SHRA VCTS SCT030 BKN040CB OVC110